createdAt,value
2022-09-06T00:03:37.177Z,68.17
2022-09-06T00:08:41.165Z,68.83
2022-09-06T00:13:46.991Z,68.13
2022-09-06T00:18:51.108Z,68.48
2022-09-06T00:23:54.775Z,67.86
2022-09-06T00:28:59.685Z,67.71
2022-09-06T00:34:03.519Z,67.30
2022-09-06T00:39:07.059Z,67.74
2022-09-06T00:44:12.109Z,67.60
2022-09-06T00:49:24.331Z,67.39
2022-09-06T00:54:28.552Z,67.29
2022-09-06T00:59:36.687Z,67.56
2022-09-06T01:04:41.778Z,67.42
2022-09-06T01:10:01.204Z,67.45
2022-09-06T01:15:18.765Z,67.13
2022-09-06T01:20:42.536Z,67.20
2022-09-06T01:25:59.667Z,67.41
2022-09-06T01:31:18.553Z,66.76
2022-09-06T01:36:25.638Z,67.15
2022-09-06T01:41:29.989Z,66.39
2022-09-06T01:46:42.017Z,66.89
2022-09-06T01:52:03.846Z,66.07
2022-09-06T01:57:23.175Z,66.37
2022-09-06T02:02:38.988Z,66.00
2022-09-06T02:07:45.990Z,66.24
2022-09-06T02:12:53.793Z,66.54
2022-09-06T02:18:03.746Z,66.22
2022-09-06T02:23:09.531Z,66.22
2022-09-06T02:28:13.239Z,66.64
2022-09-06T02:33:21.386Z,66.53
2022-09-06T02:38:28.046Z,66.52
2022-09-06T02:43:31.859Z,66.40
2022-09-06T02:48:36.957Z,66.70
2022-09-06T02:53:40.428Z,65.87
2022-09-06T02:58:43.964Z,65.95
2022-09-06T03:03:48.821Z,65.78
2022-09-06T03:08:52.217Z,65.30
2022-09-06T03:13:55.664Z,65.91
2022-09-06T03:19:00.571Z,65.84
2022-09-06T03:24:04.034Z,65.47
2022-09-06T03:29:07.441Z,65.69
2022-09-06T03:34:12.244Z,65.46
2022-09-06T03:39:15.462Z,64.80
2022-09-06T03:44:20.117Z,64.84
2022-09-06T03:49:25.424Z,64.65
2022-09-06T03:54:29.245Z,64.78
2022-09-06T03:59:32.692Z,64.35
2022-09-06T04:04:37.959Z,64.11
2022-09-06T04:09:41.378Z,63.62
2022-09-06T04:14:44.795Z,62.87
2022-09-06T04:19:49.708Z,62.11
2022-09-06T04:24:52.896Z,61.13
2022-09-06T04:29:56.711Z,61.14
2022-09-06T04:35:01.527Z,61.08
2022-09-06T04:40:08.049Z,61.19
2022-09-06T04:45:12.372Z,61.17
2022-09-06T04:50:17.214Z,61.06
2022-09-06T04:55:20.342Z,60.90
2022-09-06T05:00:23.823Z,60.79
2022-09-06T05:05:28.688Z,60.46
2022-09-06T05:10:32.211Z,60.40
2022-09-06T05:15:35.630Z,60.57
2022-09-06T05:20:40.644Z,60.18
2022-09-06T05:25:44.169Z,60.12
2022-09-06T05:30:48.645Z,59.81
2022-09-06T05:35:56.529Z,58.98
2022-09-06T05:41:00.054Z,57.60
2022-09-06T05:46:03.771Z,54.39
2022-09-06T05:51:12.562Z,49.16
2022-09-06T05:56:16.620Z,50.77
2022-09-06T06:01:22.073Z,52.33
2022-09-06T06:06:28.816Z,53.31
2022-09-06T06:11:32.816Z,53.72
2022-09-06T06:16:36.473Z,54.54
2022-09-06T06:21:41.506Z,54.82
2022-09-06T06:26:44.975Z,54.41
2022-09-06T06:31:48.468Z,54.34
2022-09-06T06:36:53.396Z,52.10
2022-09-06T06:41:56.567Z,43.56
2022-09-06T06:47:02.164Z,31.71
2022-09-06T06:52:08.090Z,31.42
2022-09-06T06:57:12.753Z,35.29
2022-09-06T07:02:17.903Z,38.14
2022-09-06T07:07:30.704Z,40.18
2022-09-06T07:12:34.635Z,39.86
2022-09-06T07:17:38.948Z,40.38
2022-09-06T07:22:43.908Z,42.91
2022-09-06T07:27:48.493Z,44.84
2022-09-06T07:32:53.159Z,44.99
2022-09-06T07:38:00.772Z,39.90
2022-09-06T07:43:04.206Z,34.25
2022-09-06T07:48:08.150Z,32.44
2022-09-06T07:53:16.678Z,36.07
2022-09-06T07:58:25.621Z,38.72
2022-09-06T08:03:29.415Z,38.32
2022-09-06T08:13:59.230Z,36.66
2022-09-06T08:19:04.997Z,32.60
2022-09-06T08:24:11.375Z,28.03
2022-09-06T08:29:15.363Z,28.06
2022-09-06T08:34:19.203Z,29.48
2022-09-06T08:39:24.059Z,31.63
2022-09-06T08:49:58.371Z,37.96
2022-09-06T08:55:18.142Z,40.74
2022-09-06T09:00:23.291Z,42.86
2022-09-06T09:05:31.301Z,42.91
2022-09-06T09:10:48.771Z,41.97
2022-09-06T09:15:54.543Z,41.83
2022-09-06T09:20:59.650Z,42.42
2022-09-06T09:26:08.467Z,42.50
2022-09-06T09:31:14.483Z,43.66
2022-09-06T09:36:23.045Z,44.65
2022-09-06T09:41:30.928Z,45.62
2022-09-06T09:46:35.380Z,46.45
2022-09-06T09:51:40.227Z,46.30
2022-09-06T09:56:51.868Z,47.03
2022-09-06T10:01:57.647Z,48.09
2022-09-06T10:07:12.855Z,48.41
2022-09-06T10:12:30.543Z,46.90
2022-09-06T10:17:37.925Z,45.47
2022-09-06T10:22:53.910Z,44.26
2022-09-06T10:28:22.718Z,44.08
2022-09-06T10:33:34.514Z,44.65
2022-09-06T10:38:49.607Z,45.36
2022-09-06T10:44:05.808Z,45.17
2022-09-06T10:49:15.256Z,44.40
2022-09-06T10:54:22.864Z,43.45
2022-09-06T11:10:10.488Z,43.01
2022-09-06T11:15:17.892Z,43.64
2022-09-06T11:20:32.173Z,42.92
2022-09-06T11:26:01.531Z,42.88
2022-09-06T11:36:37.987Z,41.85
2022-09-06T11:41:43.653Z,42.39
2022-09-06T11:47:02.058Z,43.58
2022-09-06T11:52:38.420Z,43.56
2022-09-06T11:57:43.521Z,44.67
2022-09-06T12:02:48.513Z,44.78
2022-09-06T12:08:29.344Z,45.21
2022-09-06T12:13:48.740Z,44.19
2022-09-06T12:19:01.691Z,44.15
2022-09-06T12:24:08.074Z,43.91
2022-09-06T12:29:12.615Z,43.89
2022-09-06T12:34:23.211Z,43.48
2022-09-06T12:39:27.673Z,43.67
2022-09-06T12:44:35.006Z,44.04
2022-09-06T12:49:39.898Z,44.36
2022-09-06T12:54:46.950Z,45.15
2022-09-06T12:59:55.980Z,45.32
2022-09-06T13:05:06.650Z,45.70
2022-09-06T13:10:14.085Z,45.79
2022-09-06T13:15:22.357Z,46.00
2022-09-06T13:20:30.556Z,44.95
2022-09-06T13:25:35.124Z,45.33
2022-09-06T13:30:44.321Z,45.36
2022-09-06T13:36:08.450Z,45.61
2022-09-06T13:41:47.564Z,45.99
2022-09-06T13:46:55.380Z,46.28
2022-09-06T13:52:03.309Z,46.77
2022-09-06T13:57:07.224Z,47.13
2022-09-06T14:02:15.319Z,47.10
2022-09-06T14:07:20.856Z,46.49
2022-09-06T14:12:24.831Z,45.67
2022-09-06T14:17:28.628Z,45.29
2022-09-06T14:22:33.706Z,44.09
2022-09-06T14:27:37.227Z,43.42
2022-09-06T14:32:42.319Z,42.64
2022-09-06T14:37:48.092Z,42.73
2022-09-06T14:42:51.688Z,43.31
2022-09-06T14:47:55.271Z,43.61
2022-09-06T14:53:01.547Z,43.23
2022-09-06T14:58:05.128Z,43.54
2022-09-06T15:03:08.845Z,44.09
2022-09-06T15:08:14.765Z,44.76
2022-09-06T15:13:18.435Z,46.73
2022-09-06T15:18:21.977Z,48.29
2022-09-06T15:23:28.551Z,49.65
2022-09-06T15:28:32.370Z,50.67
2022-09-06T15:33:37.576Z,50.72
2022-09-06T15:38:45.229Z,51.13
2022-09-06T15:43:51.039Z,51.37
2022-09-06T15:48:54.553Z,51.90
2022-09-06T15:54:00.556Z,52.72
2022-09-06T15:59:04.145Z,53.31
2022-09-06T16:04:08.492Z,53.30
2022-09-06T16:09:15.526Z,53.94
2022-09-06T16:14:20.013Z,53.74
2022-09-06T16:19:24.676Z,53.81
2022-09-06T16:24:31.122Z,54.01
2022-09-06T16:29:35.610Z,54.32
2022-09-06T16:34:41.139Z,54.22
2022-09-06T16:39:46.435Z,55.03
2022-09-06T16:44:50.199Z,55.21
2022-09-06T16:49:54.369Z,55.32
2022-09-06T16:55:00.642Z,55.62
2022-09-06T17:00:05.827Z,55.65
2022-09-06T17:05:10.535Z,56.21
2022-09-06T17:10:17.726Z,56.46
2022-09-06T17:15:21.712Z,56.28
2022-09-06T17:20:25.370Z,56.62
2022-09-06T17:25:33.398Z,56.64
2022-09-06T17:30:41.240Z,56.52
2022-09-06T17:35:45.594Z,56.37
2022-09-06T17:41:00.234Z,56.46
2022-09-06T17:46:05.424Z,56.33
2022-09-06T17:51:09.921Z,56.16
2022-09-06T17:56:18.101Z,55.99
2022-09-06T18:01:22.057Z,56.26
2022-09-06T18:06:27.271Z,56.08
2022-09-06T18:11:36.611Z,56.01
2022-09-06T18:16:41.692Z,55.98
2022-09-06T18:21:45.945Z,55.57
2022-09-06T18:26:50.869Z,55.73
2022-09-06T18:31:55.113Z,55.82
2022-09-06T18:37:01.085Z,56.01
2022-09-06T18:42:11.588Z,55.73
2022-09-06T18:47:16.691Z,55.89
2022-09-06T18:52:22.700Z,55.71
2022-09-06T18:57:28.811Z,55.87
2022-09-06T19:02:32.522Z,55.99
2022-09-06T19:07:36.646Z,56.00
2022-09-06T19:12:41.650Z,56.93
2022-09-06T19:17:45.106Z,57.03
2022-09-06T19:22:50.854Z,57.15
2022-09-06T19:27:55.803Z,57.39
2022-09-06T19:33:01.264Z,57.59
2022-09-06T19:38:05.184Z,57.29
2022-09-06T19:43:10.170Z,57.15
2022-09-06T19:48:13.697Z,57.29
2022-09-06T19:53:17.183Z,57.27
2022-09-06T19:58:22.115Z,56.94
2022-09-06T20:03:26.873Z,56.72
2022-09-06T20:08:30.906Z,56.55
2022-09-06T20:13:36.938Z,56.93
2022-09-06T20:18:40.856Z,57.43
2022-09-06T20:23:44.359Z,57.78
2022-09-06T20:28:49.251Z,58.24
2022-09-06T20:33:53.472Z,58.32
2022-09-06T20:38:57.113Z,58.74
2022-09-06T20:44:02.171Z,58.98
2022-09-06T20:49:06.820Z,58.74
2022-09-06T20:54:11.784Z,58.83
2022-09-06T20:59:16.402Z,59.18
2022-09-06T21:04:19.859Z,58.71
2022-09-06T21:09:24.339Z,59.41
2022-09-06T21:14:29.351Z,59.54
2022-09-06T21:19:32.845Z,60.38
2022-09-06T21:24:36.364Z,60.03
2022-09-06T21:29:41.232Z,60.51
2022-09-06T21:34:45.624Z,59.46
2022-09-06T21:39:49.341Z,60.57
2022-09-06T21:44:54.312Z,60.20
2022-09-06T21:49:58.068Z,60.86
2022-09-06T21:55:01.593Z,60.95
2022-09-06T22:00:09.691Z,61.46
2022-09-06T22:05:13.237Z,61.24
2022-09-06T22:10:16.927Z,61.33
2022-09-06T22:15:22.320Z,60.67
2022-09-06T22:20:25.808Z,61.09
2022-09-06T22:25:29.286Z,60.55
2022-09-06T22:30:34.177Z,60.68
2022-09-06T22:35:37.314Z,60.73
2022-09-06T22:40:40.779Z,61.39
2022-09-06T22:45:49.828Z,61.29
2022-09-06T22:50:57.373Z,61.40
2022-09-06T22:56:01.678Z,61.28
2022-09-06T23:01:12.392Z,61.39
2022-09-06T23:06:16.169Z,61.22
2022-09-06T23:11:21.035Z,60.98
2022-09-06T23:16:27.245Z,61.07
2022-09-06T23:21:30.853Z,60.94
2022-09-06T23:26:34.706Z,61.48
2022-09-06T23:31:39.963Z,61.44
2022-09-06T23:36:45.723Z,61.83
2022-09-06T23:41:49.188Z,61.38
2022-09-06T23:46:54.181Z,61.51
2022-09-06T23:51:59.297Z,61.98
2022-09-06T23:57:02.878Z,61.88
